createdAt,value
2022-11-26T00:00:59.359Z,19.40
2022-11-26T00:03:25.967Z,22.13
2022-11-26T00:05:56.639Z,20.53
2022-11-26T00:08:30.299Z,21.70
2022-11-26T00:10:56.837Z,17.77
2022-11-26T00:13:26.741Z,20.67
2022-11-26T00:15:53.884Z,20.50
2022-11-26T00:18:23.439Z,19.37
2022-11-26T00:20:59.769Z,14.53
2022-11-26T00:23:28.458Z,19.20
2022-11-26T00:26:04.029Z,20.07
2022-11-26T00:28:37.306Z,16.60
2022-11-26T00:31:12.847Z,17.27
2022-11-26T00:33:39.448Z,18.93
2022-11-26T00:36:25.322Z,14.17
2022-11-26T00:38:56.763Z,22.67
2022-11-26T00:41:26.195Z,16.50
2022-11-26T00:43:52.870Z,18.23
2022-11-26T00:46:22.704Z,15.93
2022-11-26T00:48:49.533Z,21.10
2022-11-26T00:51:36.654Z,17.70
2022-11-26T00:54:04.187Z,14.90
2022-11-26T00:56:36.489Z,18.90
2022-11-26T00:59:04.459Z,19.03
2022-11-26T01:01:32.861Z,17.50
2022-11-26T01:03:59.559Z,19.30
2022-11-26T01:06:32.766Z,14.43
2022-11-26T01:08:59.593Z,14.13
2022-11-26T01:11:26.566Z,17.20
2022-11-26T01:13:54.709Z,16.23
2022-11-26T01:16:30.420Z,19.10
2022-11-26T01:18:59.959Z,20.43
2022-11-26T01:21:29.849Z,18.53
2022-11-26T01:23:57.214Z,19.57
2022-11-26T01:26:27.550Z,16.47
2022-11-26T01:28:55.247Z,16.47
2022-11-26T01:31:25.679Z,18.80
2022-11-26T01:33:52.627Z,19.43
2022-11-26T01:36:24.929Z,19.10
2022-11-26T01:38:56.765Z,19.70
2022-11-26T01:41:48.317Z,18.30
2022-11-26T01:44:20.920Z,17.53
2022-11-26T01:46:48.432Z,18.70
2022-11-26T01:49:23.383Z,17.40
2022-11-26T01:52:19.957Z,17.30
2022-11-26T01:54:47.440Z,16.77
2022-11-26T01:57:33.996Z,22.23
2022-11-26T02:00:04.200Z,17.87
2022-11-26T02:02:30.882Z,16.80
2022-11-26T02:05:09.467Z,19.40
2022-11-26T02:07:36.821Z,17.40
2022-11-26T02:10:04.004Z,16.67
2022-11-26T02:12:30.858Z,14.90
2022-11-26T02:14:57.380Z,16.47
2022-11-26T02:17:39.685Z,18.00
2022-11-26T02:20:35.359Z,17.47
2022-11-26T02:23:20.350Z,16.00
2022-11-26T02:26:01.903Z,18.10
2022-11-26T02:28:50.166Z,24.70
2022-11-26T02:31:25.933Z,16.47
2022-11-26T02:34:00.126Z,16.33
2022-11-26T02:36:42.744Z,20.23
2022-11-26T02:39:12.240Z,12.37
2022-11-26T02:41:44.497Z,12.83
2022-11-26T02:44:12.151Z,15.17
2022-11-26T02:46:40.646Z,21.13
2022-11-26T02:49:11.207Z,15.87
2022-11-26T02:51:38.899Z,16.53
2022-11-26T02:54:08.656Z,17.53
2022-11-26T02:56:36.402Z,14.83
2022-11-26T02:59:04.338Z,15.17
2022-11-26T03:01:38.445Z,16.30
2022-11-26T03:04:16.151Z,13.70
2022-11-26T03:06:43.194Z,14.67
2022-11-26T03:09:09.821Z,15.73
2022-11-26T03:11:36.298Z,16.87
2022-11-26T03:14:02.850Z,17.60
2022-11-26T03:16:30.291Z,14.43
2022-11-26T03:18:56.823Z,16.70
2022-11-26T03:21:23.696Z,15.10
2022-11-26T03:23:50.139Z,24.70
2022-11-26T03:26:16.751Z,18.67
2022-11-26T03:28:43.285Z,13.23
2022-11-26T03:31:09.953Z,15.00
2022-11-26T03:33:36.473Z,11.60
2022-11-26T03:36:03.003Z,22.27
2022-11-26T03:38:29.495Z,13.13
2022-11-26T03:41:01.439Z,17.70
2022-11-26T03:43:28.078Z,16.73
2022-11-26T03:45:54.687Z,14.07
2022-11-26T03:48:21.547Z,16.53
2022-11-26T03:50:48.041Z,14.90
2022-11-26T03:53:14.580Z,14.83
2022-11-26T03:55:41.025Z,19.07
2022-11-26T03:58:07.488Z,17.17
2022-11-26T04:00:34.436Z,18.33
2022-11-26T04:03:01.094Z,19.90
2022-11-26T04:05:27.858Z,17.63
2022-11-26T04:07:54.412Z,21.50
2022-11-26T04:10:21.251Z,21.67
2022-11-26T04:12:47.794Z,19.93
2022-11-26T04:15:14.392Z,20.67
2022-11-26T04:17:41.276Z,19.63
2022-11-26T04:20:08.408Z,21.30
2022-11-26T04:22:34.837Z,21.93
2022-11-26T04:25:01.738Z,21.07
2022-11-26T04:27:28.256Z,19.03
2022-11-26T04:29:54.739Z,20.57
2022-11-26T04:32:21.650Z,22.67
2022-11-26T04:34:48.143Z,22.80
2022-11-26T04:37:14.799Z,16.70
2022-11-26T04:39:41.318Z,16.73
2022-11-26T04:42:08.066Z,22.03
2022-11-26T04:44:34.636Z,20.60
2022-11-26T04:47:01.317Z,22.47
2022-11-26T04:49:27.840Z,21.43
2022-11-26T04:51:54.274Z,18.90
2022-11-26T04:54:20.891Z,22.30
2022-11-26T04:56:47.392Z,17.33
2022-11-26T04:59:13.927Z,17.77
2022-11-26T05:01:40.477Z,18.93
2022-11-26T05:04:06.966Z,20.57
2022-11-26T05:06:33.574Z,17.87
2022-11-26T05:09:00.095Z,17.83
2022-11-26T05:11:26.594Z,14.70
2022-11-26T05:13:53.025Z,20.27
2022-11-26T05:16:19.462Z,19.67
2022-11-26T05:18:46.341Z,18.00
2022-11-26T05:21:12.942Z,17.77
2022-11-26T05:23:39.378Z,17.07
2022-11-26T05:26:06.027Z,17.83
2022-11-26T05:28:32.500Z,16.60
2022-11-26T05:31:02.984Z,20.93
2022-11-26T05:33:30.172Z,18.43
2022-11-26T05:35:56.716Z,16.53
2022-11-26T05:38:23.551Z,18.10
2022-11-26T05:40:50.113Z,15.23
2022-11-26T05:43:16.940Z,19.73
2022-11-26T05:45:43.686Z,19.40
2022-11-26T05:48:10.246Z,16.53
2022-11-26T05:50:36.742Z,21.27
2022-11-26T05:53:03.251Z,14.93
2022-11-26T05:55:29.976Z,20.90
2022-11-26T05:57:56.495Z,16.63
2022-11-26T06:00:23.295Z,18.30
2022-11-26T06:02:49.891Z,16.63
2022-11-26T06:05:16.630Z,15.63
2022-11-26T06:07:44.979Z,16.43
2022-11-26T06:10:12.969Z,18.30
2022-11-26T06:12:39.445Z,17.27
2022-11-26T06:15:06.578Z,13.90
2022-11-26T06:17:33.071Z,22.50
2022-11-26T06:19:59.913Z,19.43
2022-11-26T06:22:26.366Z,17.87
2022-11-26T06:24:52.957Z,21.57
2022-11-26T06:27:19.424Z,18.73
2022-11-26T06:29:45.860Z,16.70
2022-11-26T06:32:12.370Z,18.83
2022-11-26T06:34:39.250Z,20.13
2022-11-26T06:37:06.653Z,17.87
2022-11-26T06:39:33.138Z,17.73
2022-11-26T06:41:59.551Z,22.10
2022-11-26T06:44:25.976Z,17.70
2022-11-26T06:46:52.435Z,16.30
2022-11-26T06:49:18.903Z,19.00
2022-11-26T06:51:45.321Z,29.47
2022-11-26T06:54:11.786Z,18.27
2022-11-26T06:56:39.430Z,16.70
2022-11-26T06:59:05.875Z,16.33
2022-11-26T07:01:32.466Z,24.80
2022-11-26T07:03:59.683Z,17.47
2022-11-26T07:06:28.562Z,17.10
2022-11-26T07:08:57.572Z,19.00
2022-11-26T07:11:25.155Z,19.27
2022-11-26T07:13:52.430Z,22.27
2022-11-26T07:16:19.034Z,27.57
2022-11-26T07:18:50.742Z,18.70
2022-11-26T07:21:17.976Z,24.50
2022-11-26T07:23:44.419Z,17.67
2022-11-26T07:26:12.930Z,19.33
2022-11-26T07:28:40.072Z,25.57
2022-11-26T07:31:16.453Z,17.37
2022-11-26T07:33:43.661Z,16.37
2022-11-26T07:36:16.377Z,23.07
2022-11-26T07:38:42.817Z,16.57
2022-11-26T07:41:12.380Z,14.77
2022-11-26T07:43:41.092Z,22.97
2022-11-26T07:46:09.662Z,22.77
2022-11-26T07:48:37.026Z,20.40
2022-11-26T07:51:04.346Z,23.43
2022-11-26T07:53:32.025Z,21.20
2022-11-26T07:55:59.034Z,18.30
2022-11-26T07:58:26.917Z,21.43
2022-11-26T08:00:55.002Z,16.50
2022-11-26T08:03:22.059Z,17.40
2022-11-26T08:05:48.493Z,21.20
2022-11-26T08:08:14.983Z,16.97
2022-11-26T08:10:41.558Z,16.40
2022-11-26T08:13:08.221Z,19.47
2022-11-26T08:15:35.590Z,16.07
2022-11-26T08:18:02.060Z,15.63
2022-11-26T08:20:31.037Z,18.30
2022-11-26T08:22:57.468Z,18.43
2022-11-26T08:25:23.953Z,16.67
2022-11-26T08:27:50.426Z,16.87
2022-11-26T08:30:17.176Z,16.90
2022-11-26T08:32:43.701Z,21.57
2022-11-26T08:35:10.141Z,15.83
2022-11-26T08:37:36.843Z,19.53
2022-11-26T08:40:04.087Z,16.90
2022-11-26T08:42:30.977Z,19.60
2022-11-26T08:44:57.445Z,17.50
2022-11-26T08:47:23.930Z,15.80
2022-11-26T08:49:50.367Z,13.73
2022-11-26T08:52:16.871Z,17.90
2022-11-26T08:54:45.244Z,16.00
2022-11-26T08:57:12.422Z,16.33
2022-11-26T08:59:38.887Z,18.47
2022-11-26T09:02:05.432Z,16.83
2022-11-26T09:04:32.163Z,19.60
2022-11-26T09:06:58.596Z,15.00
2022-11-26T09:09:25.358Z,16.77
2022-11-26T09:11:56.497Z,19.70
2022-11-26T09:14:25.120Z,13.63
2022-11-26T09:16:52.486Z,17.20
2022-11-26T09:19:19.125Z,15.20
2022-11-26T09:21:46.605Z,13.83
2022-11-26T09:24:13.802Z,15.80
2022-11-26T09:26:40.740Z,13.60
2022-11-26T09:29:07.308Z,12.40
2022-11-26T09:31:34.130Z,12.40
2022-11-26T09:34:02.522Z,14.67
2022-11-26T09:36:29.327Z,13.33
2022-11-26T09:38:57.761Z,16.93
2022-11-26T09:41:24.171Z,15.17
2022-11-26T09:44:21.149Z,17.27
2022-11-26T09:47:13.084Z,11.80
2022-11-26T09:49:57.977Z,13.87
2022-11-26T09:52:30.466Z,12.80
2022-11-26T09:55:21.899Z,12.00
2022-11-26T09:57:59.241Z,19.20
2022-11-26T10:00:48.006Z,16.33
2022-11-26T10:03:17.160Z,14.97
2022-11-26T10:06:24.866Z,10.50
2022-11-26T10:09:13.177Z,13.70
2022-11-26T10:11:58.889Z,14.80
2022-11-26T10:15:02.174Z,13.57
2022-11-26T10:17:39.720Z,15.77
2022-11-26T10:20:32.803Z,17.27
2022-11-26T10:23:07.624Z,15.00
2022-11-26T10:25:40.255Z,14.97
2022-11-26T10:28:20.068Z,11.77
2022-11-26T10:31:02.662Z,17.57
2022-11-26T10:33:34.021Z,16.77
2022-11-26T10:36:00.741Z,14.47
2022-11-26T10:38:27.375Z,14.27
2022-11-26T10:40:53.966Z,15.73
2022-11-26T10:43:24.622Z,12.17
2022-11-26T10:45:54.459Z,13.13
2022-11-26T10:48:24.009Z,12.57
2022-11-26T10:51:14.179Z,12.27
2022-11-26T10:53:57.055Z,14.17
2022-11-26T10:56:36.746Z,12.97
2022-11-26T10:59:13.771Z,11.63
2022-11-26T11:01:40.594Z,13.87
2022-11-26T11:04:26.224Z,12.07
2022-11-26T11:06:53.107Z,14.47
2022-11-26T11:09:25.786Z,14.07
2022-11-26T11:12:16.250Z,11.80
2022-11-26T11:14:45.648Z,13.60
2022-11-26T11:17:36.189Z,14.47
2022-11-26T11:20:27.297Z,15.67
2022-11-26T11:23:00.371Z,14.60
2022-11-26T11:25:30.991Z,15.37
2022-11-26T11:28:10.517Z,15.17
2022-11-26T11:30:40.445Z,24.07
2022-11-26T11:33:23.242Z,21.10
2022-11-26T11:36:14.000Z,13.90
2022-11-26T11:38:52.299Z,21.47
2022-11-26T11:41:25.080Z,13.77
2022-11-26T11:43:58.673Z,17.20
2022-11-26T11:46:46.270Z,17.97
2022-11-26T11:49:28.737Z,16.60
2022-11-26T11:52:07.013Z,23.40
2022-11-26T11:54:54.418Z,17.13
2022-11-26T11:57:32.661Z,16.47
2022-11-26T12:00:13.607Z,16.57
2022-11-26T12:03:10.592Z,16.50
2022-11-26T12:05:40.237Z,23.90
2022-11-26T12:08:41.271Z,15.53
2022-11-26T12:11:18.839Z,24.50
2022-11-26T12:13:54.993Z,16.03
2022-11-26T12:16:25.908Z,17.83
2022-11-26T12:18:59.186Z,22.77
2022-11-26T12:21:40.091Z,14.37
2022-11-26T12:24:09.297Z,15.00
2022-11-26T12:26:48.490Z,19.03
2022-11-26T12:29:40.681Z,22.90
2022-11-26T12:32:07.203Z,22.87
2022-11-26T12:34:41.223Z,19.10
2022-11-26T12:37:20.049Z,15.67
2022-11-26T12:39:57.497Z,17.40
2022-11-26T12:43:05.876Z,16.03
2022-11-26T12:45:41.359Z,21.40
2022-11-26T12:48:25.868Z,18.47
2022-11-26T12:51:06.856Z,21.10
2022-11-26T12:53:52.302Z,21.67
2022-11-26T12:56:31.197Z,18.00
2022-11-26T12:59:25.742Z,16.67
2022-11-26T13:01:52.556Z,17.53
2022-11-26T13:04:37.985Z,15.70
2022-11-26T13:07:41.993Z,14.30
2022-11-26T13:10:20.682Z,17.90
2022-11-26T13:12:50.129Z,20.87
2022-11-26T13:15:31.597Z,15.17
2022-11-26T13:18:00.583Z,17.00
2022-11-26T13:20:30.005Z,21.77
2022-11-26T13:23:02.585Z,13.80
2022-11-26T13:25:50.440Z,16.93
2022-11-26T13:28:48.412Z,15.10
2022-11-26T13:31:27.271Z,17.10
2022-11-26T13:34:40.244Z,16.53
2022-11-26T13:37:06.926Z,16.83
2022-11-26T13:39:36.091Z,15.40
2022-11-26T13:42:21.413Z,22.70
2022-11-26T13:45:03.428Z,20.07
2022-11-26T13:47:48.867Z,15.80
2022-11-26T13:50:21.449Z,15.70
2022-11-26T13:52:58.912Z,17.30
2022-11-26T13:55:34.819Z,15.07
2022-11-26T13:58:06.248Z,14.50
2022-11-26T14:00:34.962Z,13.30
2022-11-26T14:03:03.204Z,14.13
2022-11-26T14:05:51.702Z,12.73
2022-11-26T14:08:41.486Z,14.20
2022-11-26T14:11:09.392Z,14.60
2022-11-26T14:13:36.471Z,12.53
2022-11-26T14:16:09.143Z,11.13
2022-11-26T14:18:51.851Z,15.90
2022-11-26T14:21:20.280Z,14.83
2022-11-26T14:23:48.018Z,10.30
2022-11-26T14:26:40.133Z,11.90
2022-11-26T14:29:17.618Z,16.83
2022-11-26T14:31:53.504Z,18.70
2022-11-26T14:34:39.764Z,11.23
2022-11-26T14:37:14.368Z,12.97
2022-11-26T14:39:43.839Z,11.93
2022-11-26T14:42:17.814Z,8.60
2022-11-26T14:44:44.742Z,13.57
2022-11-26T14:47:19.897Z,15.93
2022-11-26T14:49:54.341Z,10.00
2022-11-26T14:52:37.157Z,12.27
2022-11-26T14:55:08.445Z,14.53
2022-11-26T14:58:09.191Z,12.37
2022-11-26T15:00:36.722Z,13.73
2022-11-26T15:03:04.087Z,13.00
2022-11-26T15:05:33.321Z,12.50
2022-11-26T15:08:04.179Z,16.27
2022-11-26T15:10:37.679Z,14.83
2022-11-26T15:13:23.782Z,12.10
2022-11-26T15:15:55.497Z,10.83
2022-11-26T15:18:29.117Z,13.83
2022-11-26T15:20:56.348Z,13.07
2022-11-26T15:23:33.461Z,10.70
2022-11-26T15:26:00.981Z,11.67
2022-11-26T15:28:28.442Z,12.10
2022-11-26T15:31:00.502Z,17.40
2022-11-26T15:33:30.049Z,17.27
2022-11-26T15:35:59.416Z,14.03
2022-11-26T15:38:31.226Z,12.70
2022-11-26T15:40:57.665Z,13.50
2022-11-26T15:43:30.120Z,13.87
2022-11-26T15:46:14.515Z,15.43
2022-11-26T15:48:53.388Z,9.47
2022-11-26T15:51:43.577Z,11.87
2022-11-26T15:54:19.148Z,13.50
2022-11-26T15:56:50.241Z,11.50
2022-11-26T15:59:17.337Z,16.73
2022-11-26T16:01:45.951Z,8.93
2022-11-26T16:04:51.792Z,13.43
2022-11-26T16:07:19.860Z,15.00
2022-11-26T16:09:47.713Z,12.60
2022-11-26T16:12:34.799Z,11.70
2022-11-26T16:15:27.735Z,10.10
2022-11-26T16:17:54.215Z,13.10
2022-11-26T16:20:23.845Z,8.90
2022-11-26T16:22:53.081Z,14.43
2022-11-26T16:25:25.474Z,9.23
2022-11-26T16:28:03.524Z,10.07
2022-11-26T16:30:30.275Z,12.47
2022-11-26T16:32:56.831Z,7.97
2022-11-26T16:35:44.582Z,10.73
2022-11-26T16:38:26.398Z,8.20
2022-11-26T16:40:54.264Z,11.67
2022-11-26T16:43:20.926Z,11.30
2022-11-26T16:45:49.627Z,10.73
2022-11-26T16:48:23.228Z,10.77
2022-11-26T16:50:49.771Z,13.93
2022-11-26T16:53:16.200Z,9.70
2022-11-26T16:55:42.755Z,11.77
2022-11-26T16:58:19.576Z,14.13
2022-11-26T17:00:46.548Z,12.33
2022-11-26T17:03:14.637Z,8.60
2022-11-26T17:05:41.760Z,12.37
2022-11-26T17:08:11.572Z,11.03
2022-11-26T17:10:39.664Z,11.50
2022-11-26T17:13:06.359Z,10.50
2022-11-26T17:15:32.949Z,11.50
2022-11-26T17:18:07.669Z,11.03
2022-11-26T17:20:34.116Z,8.43
2022-11-26T17:23:00.579Z,13.87
2022-11-26T17:25:27.093Z,9.97
2022-11-26T17:27:53.594Z,8.97
2022-11-26T17:30:22.444Z,13.13
2022-11-26T17:32:49.342Z,12.10
2022-11-26T17:35:16.939Z,9.73
2022-11-26T17:37:43.862Z,10.87
2022-11-26T17:40:30.185Z,12.27
2022-11-26T17:42:56.726Z,9.03
2022-11-26T17:45:23.275Z,11.37
2022-11-26T17:47:50.183Z,9.10
2022-11-26T17:50:28.970Z,12.30
2022-11-26T17:52:55.962Z,10.43
2022-11-26T17:55:24.302Z,11.93
2022-11-26T17:57:51.272Z,9.97
2022-11-26T18:00:21.606Z,9.60
2022-11-26T18:02:48.482Z,8.70
2022-11-26T18:05:14.969Z,9.63
2022-11-26T18:07:41.584Z,12.93
2022-11-26T18:10:14.150Z,12.47
2022-11-26T18:12:41.133Z,11.47
2022-11-26T18:15:07.967Z,13.60
2022-11-26T18:17:34.445Z,11.17
2022-11-26T18:20:00.973Z,10.07
2022-11-26T18:22:28.299Z,11.77
2022-11-26T18:24:57.354Z,8.87
2022-11-26T18:27:28.800Z,8.93
2022-11-26T18:29:55.605Z,8.10
2022-11-26T18:32:22.567Z,10.07
2022-11-26T18:34:50.565Z,11.73
2022-11-26T18:37:17.543Z,8.03
2022-11-26T18:39:44.008Z,11.83
2022-11-26T18:44:58.232Z,8.60
2022-11-26T18:47:24.857Z,13.37
2022-11-26T18:49:51.358Z,11.10
2022-11-26T18:52:17.896Z,9.27
2022-11-26T18:54:44.375Z,10.77
2022-11-26T18:57:10.818Z,12.07
2022-11-26T18:59:37.702Z,8.17
2022-11-26T19:02:04.870Z,6.93
2022-11-26T19:04:31.477Z,16.07
2022-11-26T19:06:57.917Z,10.43
2022-11-26T19:09:24.416Z,12.93
2022-11-26T19:11:58.302Z,14.23
2022-11-26T19:14:25.063Z,11.57
2022-11-26T19:16:51.935Z,11.73
2022-11-26T19:19:18.550Z,7.83
2022-11-26T19:21:45.013Z,9.93
2022-11-26T19:24:12.622Z,8.10
2022-11-26T19:26:41.277Z,14.10
2022-11-26T19:29:09.135Z,10.90
2022-11-26T19:31:39.011Z,14.10
2022-11-26T19:34:12.507Z,11.90
2022-11-26T19:36:39.353Z,11.07
2022-11-26T19:39:06.996Z,10.90
2022-11-26T19:41:33.758Z,11.60
2022-11-26T19:44:01.046Z,9.83
2022-11-26T19:46:27.915Z,10.43
2022-11-26T19:48:55.656Z,10.53
2022-11-26T19:51:24.473Z,8.67
2022-11-26T19:53:53.670Z,12.03
2022-11-26T19:56:30.995Z,12.80
2022-11-26T19:58:58.982Z,10.73
2022-11-26T20:01:27.450Z,16.27
2022-11-26T20:03:54.217Z,11.03
2022-11-26T20:06:26.258Z,14.70
2022-11-26T20:08:53.347Z,10.20
2022-11-26T20:11:20.207Z,8.37
2022-11-26T20:13:48.798Z,8.40
2022-11-26T20:16:19.380Z,8.23
2022-11-26T20:18:46.697Z,8.83
2022-11-26T20:21:15.411Z,13.37
2022-11-26T20:23:42.703Z,10.00
2022-11-26T20:26:30.326Z,12.43
2022-11-26T20:29:00.827Z,10.10
2022-11-26T20:31:27.596Z,9.83
2022-11-26T20:33:54.873Z,8.13
2022-11-26T20:36:23.201Z,9.07
2022-11-26T20:38:54.556Z,14.97
2022-11-26T20:41:22.161Z,9.60
2022-11-26T20:43:53.535Z,9.73
2022-11-26T20:46:23.535Z,10.77
2022-11-26T20:48:50.206Z,8.00
2022-11-26T20:51:19.324Z,12.07
2022-11-26T20:53:50.510Z,10.30
2022-11-26T20:56:19.216Z,12.37
2022-11-26T20:58:46.169Z,9.17
2022-11-26T21:01:22.565Z,7.63
2022-11-26T21:03:50.224Z,7.57
2022-11-26T21:06:18.929Z,10.23
2022-11-26T21:08:45.822Z,12.87
2022-11-26T21:11:13.439Z,9.70
2022-11-26T21:13:40.641Z,12.27
2022-11-26T21:16:11.687Z,13.87
2022-11-26T21:18:38.492Z,11.10
2022-11-26T21:21:13.311Z,10.87
2022-11-26T21:23:40.784Z,10.20
2022-11-26T21:26:09.832Z,9.80
2022-11-26T21:28:36.827Z,10.20
2022-11-26T21:31:14.474Z,8.70
2022-11-26T21:33:41.013Z,11.13
2022-11-26T21:36:13.750Z,12.13
2022-11-26T21:38:43.622Z,13.67
2022-11-26T21:41:12.647Z,8.60
2022-11-26T21:43:44.109Z,11.57
2022-11-26T21:46:15.816Z,11.20
2022-11-26T21:48:42.514Z,6.77
2022-11-26T21:51:15.518Z,12.43
2022-11-26T21:53:42.824Z,15.10
2022-11-26T21:56:16.600Z,13.00
2022-11-26T21:58:43.621Z,14.47
2022-11-26T22:01:24.683Z,10.17
2022-11-26T22:03:56.865Z,11.27
2022-11-26T22:06:24.267Z,13.90
2022-11-26T22:08:51.265Z,12.23
2022-11-26T22:11:23.777Z,9.97
2022-11-26T22:13:51.420Z,9.10
2022-11-26T22:16:20.934Z,10.37
2022-11-26T22:18:48.461Z,12.43
2022-11-26T22:21:19.026Z,9.40
2022-11-26T22:23:46.085Z,9.97
2022-11-26T22:26:12.731Z,9.67
2022-11-26T22:28:39.707Z,11.40
2022-11-26T22:31:09.460Z,9.07
2022-11-26T22:33:35.939Z,12.80
2022-11-26T22:36:02.691Z,9.00
2022-11-26T22:38:29.141Z,10.43
2022-11-26T22:41:00.274Z,10.17
2022-11-26T22:43:26.710Z,8.73
2022-11-26T22:45:53.250Z,8.63
2022-11-26T22:48:19.716Z,9.27
2022-11-26T22:50:53.647Z,10.00
2022-11-26T22:53:21.301Z,9.80
2022-11-26T22:55:55.990Z,12.80
2022-11-26T22:58:24.321Z,10.70
2022-11-26T23:00:54.092Z,12.90
2022-11-26T23:03:20.861Z,13.87
2022-11-26T23:05:47.865Z,10.13
2022-11-26T23:08:15.433Z,9.63
2022-11-26T23:10:42.391Z,10.00
2022-11-26T23:13:13.597Z,14.13
2022-11-26T23:15:44.668Z,9.83
2022-11-26T23:18:13.513Z,10.70
2022-11-26T23:20:40.436Z,9.43
2022-11-26T23:23:07.043Z,11.33
2022-11-26T23:25:38.454Z,11.87
2022-11-26T23:28:06.905Z,10.17
2022-11-26T23:30:34.510Z,16.00
2022-11-26T23:33:01.192Z,8.17
2022-11-26T23:35:28.009Z,11.73
2022-11-26T23:37:54.440Z,13.47
2022-11-26T23:40:20.953Z,13.33
2022-11-26T23:42:47.551Z,12.33
2022-11-26T23:45:13.984Z,9.80
2022-11-26T23:47:40.420Z,11.33
2022-11-26T23:50:07.816Z,13.50
2022-11-26T23:52:35.710Z,17.63
2022-11-26T23:55:02.280Z,14.03
2022-11-26T23:57:28.761Z,11.57
2022-11-26T23:59:55.191Z,7.30
